createdAt,value
2022-08-21T00:00:12.227Z,84.83
2022-08-21T00:01:12.211Z,84.93
2022-08-21T00:02:12.271Z,85.43
2022-08-21T00:03:12.228Z,85.68
2022-08-21T00:04:14.666Z,85.63
2022-08-21T00:05:13.173Z,85.68
2022-08-21T00:06:13.947Z,85.87
2022-08-21T00:07:12.178Z,85.77
2022-08-21T00:08:12.225Z,85.87
2022-08-21T00:09:12.136Z,85.87
2022-08-21T00:10:12.107Z,85.77
2022-08-21T00:11:12.109Z,85.77
2022-08-21T00:12:12.159Z,85.87
2022-08-21T00:13:12.104Z,86.47
2022-08-21T00:14:12.079Z,85.97
2022-08-21T00:15:12.056Z,85.68
2022-08-21T00:16:12.043Z,85.77
2022-08-21T00:17:12.060Z,85.77
2022-08-21T00:18:12.026Z,85.68
2022-08-21T00:19:12.026Z,85.97
2022-08-21T00:20:12.008Z,85.47
2022-08-21T00:21:11.991Z,85.47
2022-08-21T00:22:12.007Z,85.68
2022-08-21T00:23:12.011Z,85.43
2022-08-21T00:24:12.006Z,84.53
2022-08-21T00:25:12.053Z,85.33
2022-08-21T00:26:11.932Z,84.83
2022-08-21T00:27:11.952Z,84.53
2022-08-21T00:28:11.972Z,84.53
2022-08-21T00:29:12.913Z,84.63
2022-08-21T00:30:11.911Z,84.63
2022-08-21T00:31:12.916Z,84.73
2022-08-21T00:32:11.903Z,85.43
2022-08-21T00:33:11.867Z,85.33
2022-08-21T00:34:11.850Z,85.17
2022-08-21T00:35:11.845Z,85.27
2022-08-21T00:36:11.837Z,85.37
2022-08-21T00:37:11.840Z,85.27
2022-08-21T00:38:11.798Z,85.57
2022-08-21T00:39:11.795Z,85.47
2022-08-21T00:40:11.841Z,85.68
2022-08-21T00:41:36.481Z,85.47
2022-08-21T00:42:12.772Z,85.57
2022-08-21T00:43:11.743Z,85.77
2022-08-21T00:44:11.755Z,85.97
2022-08-21T00:45:11.732Z,85.68
2022-08-21T00:46:11.716Z,85.03
2022-08-21T00:47:11.741Z,85.07
2022-08-21T00:48:11.699Z,84.83
2022-08-21T00:49:11.703Z,85.23
2022-08-21T00:50:11.969Z,85.13
2022-08-21T00:51:12.660Z,85.33
2022-08-21T00:52:11.723Z,85.43
2022-08-21T00:53:11.645Z,85.03
2022-08-21T00:54:18.646Z,84.43
2022-08-21T00:55:12.609Z,84.13
2022-08-21T00:56:11.616Z,83.99
2022-08-21T00:57:11.940Z,84.03
2022-08-21T00:58:11.603Z,84.03
2022-08-21T00:59:11.658Z,83.93
2022-08-21T01:00:11.609Z,84.13
2022-08-21T01:01:11.826Z,83.83
2022-08-21T01:02:11.559Z,84.13
2022-08-21T01:03:11.530Z,83.93
2022-08-21T01:04:11.517Z,83.93
2022-08-21T01:05:11.543Z,84.03
2022-08-21T01:06:11.552Z,83.53
2022-08-21T01:07:11.481Z,83.63
2022-08-21T01:08:11.466Z,83.53
2022-08-21T01:09:11.478Z,83.23
2022-08-21T01:10:12.020Z,83.49
2022-08-21T01:11:12.478Z,83.23
2022-08-21T01:12:12.194Z,83.43
2022-08-21T01:13:11.419Z,83.43
2022-08-21T01:14:11.410Z,83.53
2022-08-21T01:15:11.384Z,83.93
2022-08-21T01:16:11.425Z,83.73
2022-08-21T01:17:11.397Z,84.03
2022-08-21T01:18:11.358Z,83.93
2022-08-21T01:19:11.349Z,83.93
2022-08-21T01:20:11.323Z,84.23
2022-08-21T01:21:12.620Z,84.33
2022-08-21T01:22:11.320Z,84.13
2022-08-21T01:23:11.349Z,83.83
2022-08-21T01:24:11.288Z,84.03
2022-08-21T01:25:11.266Z,84.07
2022-08-21T01:26:11.273Z,84.47
2022-08-21T01:27:11.320Z,83.87
2022-08-21T01:28:11.278Z,83.73
2022-08-21T01:29:12.229Z,84.13
2022-08-21T01:30:11.220Z,83.93
2022-08-21T01:31:11.218Z,83.33
2022-08-21T01:32:11.196Z,83.33
2022-08-21T01:33:12.208Z,83.33
2022-08-21T01:34:11.194Z,83.43
2022-08-21T01:35:11.162Z,83.73
2022-08-21T01:36:11.190Z,83.77
2022-08-21T01:37:11.359Z,83.97
2022-08-21T01:38:11.151Z,83.87
2022-08-21T01:39:11.161Z,83.87
2022-08-21T01:40:11.182Z,83.77
2022-08-21T01:41:11.094Z,83.97
2022-08-21T01:42:11.197Z,83.87
2022-08-21T01:43:11.089Z,83.07
2022-08-21T01:44:11.097Z,83.27
2022-08-21T01:45:11.049Z,83.27
2022-08-21T01:46:11.047Z,82.51
2022-08-21T01:47:11.049Z,83.21
2022-08-21T01:48:11.126Z,83.31
2022-08-21T01:49:11.023Z,83.11
2022-08-21T01:50:11.442Z,82.81
2022-08-21T01:51:11.016Z,82.91
2022-08-21T01:52:11.044Z,83.71
2022-08-21T01:53:10.959Z,83.81
2022-08-21T01:54:10.972Z,83.35
2022-08-21T01:55:10.987Z,83.11
2022-08-21T01:56:12.107Z,82.91
2022-08-21T01:57:10.943Z,82.61
2022-08-21T01:58:10.972Z,83.31
2022-08-21T01:59:10.919Z,83.31
2022-08-21T02:00:10.929Z,83.11
2022-08-21T02:01:10.996Z,83.25
2022-08-21T02:02:10.860Z,83.41
2022-08-21T02:03:11.074Z,83.61
2022-08-21T02:04:10.850Z,82.91
2022-08-21T02:05:10.830Z,82.81
2022-08-21T02:06:10.845Z,83.31
2022-08-21T02:07:11.104Z,82.61
2022-08-21T02:08:10.795Z,83.11
2022-08-21T02:09:10.804Z,82.71
2022-08-21T02:10:10.766Z,82.81
2022-08-21T02:11:10.795Z,82.91
2022-08-21T02:12:10.763Z,81.97
2022-08-21T02:13:13.269Z,82.01
2022-08-21T02:14:10.739Z,82.51
2022-08-21T02:15:10.730Z,82.41
2022-08-21T02:16:10.905Z,82.51
2022-08-21T02:17:10.730Z,81.97
2022-08-21T02:18:10.716Z,82.41
2022-08-21T02:19:10.676Z,82.47
2022-08-21T02:20:10.660Z,82.21
2022-08-21T02:21:10.670Z,82.11
2022-08-21T02:22:10.677Z,82.61
2022-08-21T02:23:10.637Z,82.61
2022-08-21T02:24:10.969Z,83.15
2022-08-21T02:25:10.625Z,82.41
2022-08-21T02:26:10.657Z,82.41
2022-08-21T02:27:10.579Z,83.01
2022-08-21T02:28:10.583Z,83.21
2022-08-21T02:29:10.576Z,82.41
2022-08-21T02:30:10.544Z,82.75
2022-08-21T02:31:10.628Z,82.45
2022-08-21T02:32:10.526Z,82.21
2022-08-21T02:33:10.539Z,82.31
2022-08-21T02:34:10.529Z,81.51
2022-08-21T02:35:10.493Z,81.61
2022-08-21T02:36:10.477Z,81.61
2022-08-21T02:37:10.480Z,81.67
2022-08-21T02:38:12.998Z,81.61
2022-08-21T02:39:10.568Z,81.30
2022-08-21T02:40:10.541Z,81.61
2022-08-21T02:41:10.428Z,81.81
2022-08-21T02:42:10.422Z,81.41
2022-08-21T02:43:10.442Z,82.41
2022-08-21T02:44:10.408Z,82.21
2022-08-21T02:45:10.400Z,81.41
2022-08-21T02:46:10.380Z,82.01
2022-08-21T02:47:10.364Z,81.41
2022-08-21T02:48:10.345Z,81.61
2022-08-21T02:49:10.383Z,81.21
2022-08-21T02:50:10.345Z,81.30
2022-08-21T02:51:10.326Z,81.51
2022-08-21T02:52:11.234Z,81.61
2022-08-21T02:53:10.295Z,81.41
2022-08-21T02:54:10.287Z,81.30
2022-08-21T02:55:10.287Z,81.24
2022-08-21T02:56:10.297Z,81.45
2022-08-21T02:57:10.271Z,81.35
2022-08-21T02:58:10.367Z,81.24
2022-08-21T02:59:10.221Z,81.55
2022-08-21T03:00:10.218Z,81.21
2022-08-21T03:01:10.200Z,80.85
2022-08-21T03:02:10.210Z,80.71
2022-08-21T03:03:10.212Z,80.71
2022-08-21T03:04:10.183Z,80.30
2022-08-21T03:05:10.183Z,80.21
2022-08-21T03:06:10.168Z,80.30
2022-08-21T03:07:10.991Z,80.00
2022-08-21T03:08:10.122Z,80.11
2022-08-21T03:09:10.115Z,80.04
2022-08-21T03:10:10.120Z,79.91
2022-08-21T03:11:10.852Z,80.04
2022-08-21T03:12:10.125Z,79.54
2022-08-21T03:13:10.078Z,79.50
2022-08-21T03:14:10.090Z,79.30
2022-08-21T03:15:10.489Z,79.64
2022-08-21T03:16:10.243Z,79.44
2022-08-21T03:17:10.034Z,78.80
2022-08-21T03:18:10.040Z,78.91
2022-08-21T03:19:31.024Z,79.14
2022-08-21T03:20:09.995Z,78.91
2022-08-21T03:21:09.979Z,79.34
2022-08-21T03:22:10.008Z,79.48
2022-08-21T03:23:13.186Z,79.68
2022-08-21T03:24:09.937Z,79.74
2022-08-21T03:25:10.877Z,79.28
2022-08-21T03:26:09.954Z,80.08
2022-08-21T03:27:09.917Z,80.22
2022-08-21T03:28:10.264Z,80.28
2022-08-21T03:29:09.906Z,80.18
2022-08-21T03:30:19.756Z,79.78
2022-08-21T03:31:09.869Z,79.58
2022-08-21T03:32:09.854Z,79.78
2022-08-21T03:33:13.045Z,79.98
2022-08-21T03:34:10.881Z,79.98
2022-08-21T03:35:09.816Z,79.78
2022-08-21T03:36:09.801Z,79.98
2022-08-21T03:37:09.816Z,80.08
2022-08-21T03:38:09.780Z,79.78
2022-08-21T03:39:09.779Z,80.02
2022-08-21T03:40:09.909Z,80.22
2022-08-21T03:41:09.748Z,80.42
2022-08-21T03:42:09.764Z,80.08
2022-08-21T03:43:09.726Z,79.92
2022-08-21T03:44:09.726Z,79.82
2022-08-21T03:45:09.740Z,80.02
2022-08-21T03:46:09.693Z,80.06
2022-08-21T03:47:09.681Z,80.26
2022-08-21T03:48:09.687Z,80.86
2022-08-21T03:49:09.729Z,81.06
2022-08-21T03:50:09.644Z,80.76
2022-08-21T03:51:09.635Z,81.00
2022-08-21T03:52:09.641Z,81.06
2022-08-21T03:53:17.085Z,80.76
2022-08-21T03:54:10.601Z,80.46
2022-08-21T03:55:09.649Z,80.46
2022-08-21T03:56:09.583Z,80.36
2022-08-21T03:57:09.613Z,79.82
2022-08-21T03:58:16.996Z,80.06
2022-08-21T03:59:10.543Z,80.16
2022-08-21T04:00:09.539Z,80.06
2022-08-21T04:01:09.547Z,79.82
2022-08-21T04:02:10.290Z,79.32
2022-08-21T04:03:09.506Z,79.42
2022-08-21T04:04:09.493Z,79.12
2022-08-21T04:05:09.501Z,79.22
2022-08-21T04:06:09.799Z,79.02
2022-08-21T04:07:09.459Z,78.81
2022-08-21T04:08:09.511Z,78.92
2022-08-21T04:09:09.432Z,78.72
2022-08-21T04:10:09.423Z,78.78
2022-08-21T04:11:09.439Z,78.52
2022-08-21T04:12:09.401Z,78.92
2022-08-21T04:13:09.394Z,78.92
2022-08-21T04:14:09.375Z,78.92
2022-08-21T04:15:09.388Z,79.02
2022-08-21T04:16:09.359Z,78.42
2022-08-21T04:17:09.352Z,79.12
2022-08-21T04:18:09.329Z,78.92
2022-08-21T04:19:09.321Z,79.12
2022-08-21T04:20:09.323Z,79.32
2022-08-21T04:21:10.818Z,79.02
2022-08-21T04:22:09.301Z,79.36
2022-08-21T04:23:09.272Z,79.36
2022-08-21T04:24:09.263Z,78.75
2022-08-21T04:25:10.557Z,78.96
2022-08-21T04:26:09.241Z,79.36
2022-08-21T04:27:09.230Z,79.25
2022-08-21T04:28:09.227Z,79.05
2022-08-21T04:29:09.210Z,78.72
2022-08-21T04:30:09.256Z,78.75
2022-08-21T04:31:09.211Z,78.85
2022-08-21T04:32:09.199Z,78.96
2022-08-21T04:33:09.200Z,78.85
2022-08-21T04:34:09.153Z,78.22
2022-08-21T04:35:09.170Z,78.02
2022-08-21T04:36:09.248Z,78.02
2022-08-21T04:37:09.118Z,77.91
2022-08-21T04:38:09.422Z,77.91
2022-08-21T04:39:10.182Z,77.72
2022-08-21T04:40:09.180Z,77.21
2022-08-21T04:41:09.074Z,77.08
2022-08-21T04:42:09.243Z,76.91
2022-08-21T04:43:09.057Z,77.17
2022-08-21T04:44:09.055Z,76.37
2022-08-21T04:45:09.056Z,77.28
2022-08-21T04:46:09.017Z,76.37
2022-08-21T04:47:09.007Z,76.31
2022-08-21T04:48:13.735Z,76.98
2022-08-21T04:49:10.001Z,76.28
2022-08-21T04:50:08.989Z,76.57
2022-08-21T04:51:09.011Z,76.28
2022-08-21T04:52:08.949Z,76.57
2022-08-21T04:53:08.943Z,76.61
2022-08-21T04:54:08.951Z,76.31
2022-08-21T04:55:09.779Z,76.37
2022-08-21T04:56:08.902Z,76.57
2022-08-21T04:57:08.892Z,76.78
2022-08-21T04:58:08.897Z,76.17
2022-08-21T04:59:08.889Z,75.87
2022-08-21T05:00:13.651Z,76.17
2022-08-21T05:01:09.877Z,75.97
2022-08-21T05:02:08.839Z,76.07
2022-08-21T05:03:08.847Z,75.37
2022-08-21T05:04:08.814Z,75.87
2022-08-21T05:05:08.805Z,75.67
2022-08-21T05:06:08.795Z,75.47
2022-08-21T05:07:08.781Z,75.77
2022-08-21T05:08:08.789Z,75.27
2022-08-21T05:09:08.779Z,74.97
2022-08-21T05:10:08.749Z,75.07
2022-08-21T05:11:08.737Z,75.07
2022-08-21T05:12:08.723Z,74.97
2022-08-21T05:13:08.714Z,74.84
2022-08-21T05:14:08.721Z,75.17
2022-08-21T05:15:08.692Z,75.47
2022-08-21T05:16:09.287Z,75.67
2022-08-21T05:17:08.689Z,75.37
2022-08-21T05:18:08.841Z,75.47
2022-08-21T05:19:08.675Z,75.37
2022-08-21T05:20:08.643Z,75.17
2022-08-21T05:21:08.624Z,75.47
2022-08-21T05:22:08.612Z,75.57
2022-08-21T05:23:08.608Z,75.27
2022-08-21T05:24:08.604Z,75.37
2022-08-21T05:25:10.438Z,75.57
2022-08-21T05:26:08.573Z,75.17
2022-08-21T05:27:09.556Z,75.13
2022-08-21T05:28:08.543Z,75.23
2022-08-21T05:29:12.867Z,74.63
2022-08-21T05:30:08.614Z,74.73
2022-08-21T05:31:08.511Z,74.84
2022-08-21T05:32:08.499Z,74.73
2022-08-21T05:33:08.490Z,75.04
2022-08-21T05:34:08.499Z,74.63
2022-08-21T05:35:09.248Z,74.63
2022-08-21T05:36:08.454Z,74.54
2022-08-21T05:37:08.444Z,74.43
2022-08-21T05:38:16.630Z,74.77
2022-08-21T05:39:09.489Z,74.84
2022-08-21T05:40:21.964Z,74.84
2022-08-21T05:41:09.466Z,74.93
2022-08-21T05:42:08.398Z,74.63
2022-08-21T05:43:08.386Z,74.84
2022-08-21T05:44:10.267Z,74.54
2022-08-21T05:45:08.354Z,74.63
2022-08-21T05:46:08.363Z,74.63
2022-08-21T05:47:08.335Z,74.30
2022-08-21T05:48:08.352Z,74.70
2022-08-21T05:49:08.329Z,74.70
2022-08-21T05:50:08.302Z,74.60
2022-08-21T05:51:08.287Z,74.60
2022-08-21T05:52:08.299Z,73.80
2022-08-21T05:53:08.404Z,73.73
2022-08-21T05:54:08.686Z,74.00
2022-08-21T05:55:08.243Z,73.90
2022-08-21T05:56:08.235Z,73.60
2022-08-21T05:57:08.219Z,73.70
2022-08-21T05:58:08.212Z,73.30
2022-08-21T05:59:08.660Z,73.39
2022-08-21T06:00:08.189Z,73.30
2022-08-21T06:01:08.216Z,73.36
2022-08-21T06:02:08.171Z,73.46
2022-08-21T06:03:08.154Z,73.36
2022-08-21T06:04:08.174Z,73.56
2022-08-21T06:05:08.159Z,73.56
2022-08-21T06:06:08.122Z,73.46
2022-08-21T06:07:08.130Z,73.16
2022-08-21T06:08:08.101Z,73.06
2022-08-21T06:09:08.333Z,72.86
2022-08-21T06:10:08.078Z,72.86
2022-08-21T06:11:08.085Z,73.26
2022-08-21T06:12:08.052Z,72.92
2022-08-21T06:13:08.042Z,73.06
2022-08-21T06:14:08.049Z,72.76
2022-08-21T06:15:08.103Z,72.16
2022-08-21T06:16:08.009Z,72.33
2022-08-21T06:17:08.009Z,71.73
2022-08-21T06:18:08.162Z,72.23
2022-08-21T06:19:09.306Z,71.73
2022-08-21T06:20:08.405Z,70.92
2022-08-21T06:21:07.958Z,71.42
2022-08-21T06:22:07.949Z,71.62
2022-08-21T06:23:07.932Z,71.03
2022-08-21T06:24:08.338Z,71.12
2022-08-21T06:25:07.979Z,71.19
2022-08-21T06:26:08.133Z,70.89
2022-08-21T06:27:07.887Z,71.53
2022-08-21T06:28:07.872Z,71.19
2022-08-21T06:29:07.898Z,71.09
2022-08-21T06:30:07.856Z,70.49
2022-08-21T06:31:07.862Z,70.59
2022-08-21T06:32:07.834Z,70.49
2022-08-21T06:33:07.819Z,70.36
2022-08-21T06:34:07.809Z,70.19
2022-08-21T06:35:07.825Z,70.36
2022-08-21T06:36:07.787Z,69.96
2022-08-21T06:37:08.311Z,69.76
2022-08-21T06:38:07.764Z,69.56
2022-08-21T06:39:12.349Z,69.06
2022-08-21T06:40:12.598Z,69.13
2022-08-21T06:41:07.725Z,68.63
2022-08-21T06:42:10.574Z,68.66
2022-08-21T06:43:07.751Z,69.02
2022-08-21T06:44:07.697Z,68.82
2022-08-21T06:45:07.703Z,68.63
2022-08-21T06:46:07.677Z,67.90
2022-08-21T06:47:07.665Z,67.72
2022-08-21T06:48:07.653Z,68.40
2022-08-21T06:49:07.638Z,67.99
2022-08-21T06:50:08.670Z,67.49
2022-08-21T06:51:07.625Z,67.90
2022-08-21T06:52:07.608Z,67.36
2022-08-21T06:53:07.632Z,67.96
2022-08-21T06:54:08.327Z,67.66
2022-08-21T06:55:07.602Z,67.26
2022-08-21T06:56:07.574Z,66.47
2022-08-21T06:57:07.550Z,66.24
2022-08-21T06:58:07.706Z,66.03
2022-08-21T06:59:07.546Z,67.33
2022-08-21T07:00:07.540Z,67.53
2022-08-21T07:01:07.552Z,66.80
2022-08-21T07:02:07.493Z,66.50
2022-08-21T07:03:07.482Z,65.91
2022-08-21T07:04:07.476Z,65.11
2022-08-21T07:05:17.623Z,65.47
2022-08-21T07:06:08.446Z,64.97
2022-08-21T07:07:07.435Z,64.34
2022-08-21T07:08:07.425Z,64.34
2022-08-21T07:09:07.412Z,63.52
2022-08-21T07:10:07.431Z,62.92
2022-08-21T07:11:08.285Z,62.89
2022-08-21T07:12:07.389Z,62.40
2022-08-21T07:13:07.764Z,61.77
2022-08-21T07:14:07.357Z,61.74
2022-08-21T07:15:07.359Z,61.24
2022-08-21T07:16:07.353Z,61.21
2022-08-21T07:17:07.340Z,60.91
2022-08-21T07:18:07.316Z,61.01
2022-08-21T07:19:07.326Z,60.88
2022-08-21T07:20:07.293Z,59.59
2022-08-21T07:21:07.281Z,60.31
2022-08-21T07:22:07.272Z,60.12
2022-08-21T07:23:07.259Z,60.22
2022-08-21T07:24:07.265Z,59.52
2022-08-21T07:25:07.273Z,59.12
2022-08-21T07:26:07.276Z,59.42
2022-08-21T07:27:10.117Z,59.49
2022-08-21T07:28:07.789Z,58.80
2022-08-21T07:29:07.192Z,59.09
2022-08-21T07:30:07.188Z,59.30
2022-08-21T07:31:07.194Z,59.32
2022-08-21T07:32:07.171Z,59.52
2022-08-21T07:33:07.171Z,59.52
2022-08-21T07:34:07.162Z,59.45
2022-08-21T07:35:07.179Z,59.35
2022-08-21T07:36:07.126Z,59.55
2022-08-21T07:37:10.241Z,59.35
2022-08-21T07:38:07.094Z,59.22
2022-08-21T07:39:07.116Z,59.35
2022-08-21T07:40:07.153Z,58.95
2022-08-21T07:41:07.064Z,58.45
2022-08-21T07:42:08.585Z,57.93
2022-08-21T07:43:07.040Z,58.03
2022-08-21T07:44:07.035Z,58.13
2022-08-21T07:45:07.023Z,57.34
2022-08-21T07:46:07.032Z,57.21
2022-08-21T07:47:07.029Z,56.51
2022-08-21T07:48:06.988Z,55.91
2022-08-21T07:49:07.359Z,56.49
2022-08-21T07:50:06.972Z,55.87
2022-08-21T07:51:06.965Z,55.24
2022-08-21T07:52:06.971Z,54.82
2022-08-21T07:53:06.933Z,53.90
2022-08-21T07:54:06.924Z,53.63
2022-08-21T07:55:07.044Z,54.32
2022-08-21T07:56:06.918Z,54.32
2022-08-21T07:57:06.889Z,53.90
2022-08-21T07:58:06.876Z,53.67
2022-08-21T07:59:06.866Z,53.58
2022-08-21T08:00:06.928Z,52.29
2022-08-21T08:01:06.899Z,52.26
2022-08-21T08:02:06.850Z,52.36
2022-08-21T08:03:06.821Z,51.97
2022-08-21T08:04:06.815Z,52.14
2022-08-21T08:05:06.820Z,51.65
2022-08-21T08:06:07.376Z,51.75
2022-08-21T08:07:06.779Z,51.62
2022-08-21T08:08:06.766Z,51.32
2022-08-21T08:09:06.756Z,50.90
2022-08-21T08:10:06.768Z,50.19
2022-08-21T08:11:06.760Z,49.35
2022-08-21T08:12:06.726Z,49.13
2022-08-21T08:13:06.708Z,47.53
2022-08-21T08:14:06.697Z,46.79
2022-08-21T08:15:06.716Z,47.38
2022-08-21T08:16:06.687Z,45.78
2022-08-21T08:17:06.907Z,46.69
2022-08-21T08:18:06.660Z,46.40
2022-08-21T08:19:06.642Z,45.71
2022-08-21T08:20:06.690Z,45.49
2022-08-21T08:21:06.641Z,45.98
2022-08-21T08:22:06.618Z,45.98
2022-08-21T08:23:07.318Z,45.76
2022-08-21T08:24:19.340Z,44.98
2022-08-21T08:25:09.599Z,44.12
2022-08-21T08:26:06.578Z,43.49
2022-08-21T08:27:06.556Z,42.08
2022-08-21T08:28:16.515Z,41.56
2022-08-21T08:29:07.559Z,41.15
2022-08-21T08:30:06.535Z,40.62
2022-08-21T08:31:06.537Z,40.11
2022-08-21T08:32:06.643Z,39.84
2022-08-21T08:33:06.493Z,39.53
2022-08-21T08:34:06.483Z,38.73
2022-08-21T08:35:06.501Z,39.41
2022-08-21T08:36:08.183Z,38.94
2022-08-21T08:37:06.447Z,38.92
2022-08-21T08:38:06.737Z,38.22
2022-08-21T08:39:06.440Z,38.20
2022-08-21T08:40:06.521Z,37.54
2022-08-21T08:41:06.442Z,38.02
2022-08-21T08:42:33.594Z,38.02
2022-08-21T08:43:07.385Z,38.34
2022-08-21T08:44:06.397Z,39.06
2022-08-21T08:45:06.365Z,39.64
2022-08-21T08:46:06.352Z,40.16
2022-08-21T08:47:06.362Z,40.66
2022-08-21T08:48:06.356Z,42.19
2022-08-21T08:49:07.863Z,42.55
2022-08-21T08:50:06.311Z,43.28
2022-08-21T08:51:06.304Z,44.09
2022-08-21T08:52:06.302Z,44.90
2022-08-21T08:53:06.308Z,45.19
2022-08-21T08:54:06.269Z,45.21
2022-08-21T08:55:06.389Z,44.87
2022-08-21T08:56:06.247Z,46.44
2022-08-21T08:57:06.263Z,46.86
2022-08-21T08:58:06.240Z,46.66
2022-08-21T08:59:06.227Z,46.25
2022-08-21T09:00:06.879Z,46.17
2022-08-21T09:01:06.262Z,46.56
2022-08-21T09:02:06.185Z,46.48
2022-08-21T09:03:06.185Z,46.70
2022-08-21T09:04:06.163Z,47.20
2022-08-21T09:05:06.179Z,47.22
2022-08-21T09:06:06.253Z,47.52
2022-08-21T09:07:06.147Z,47.54
2022-08-21T09:08:06.121Z,47.66
2022-08-21T09:09:06.128Z,48.28
2022-08-21T09:10:06.097Z,48.68
2022-08-21T09:11:06.085Z,48.26
2022-08-21T09:12:06.280Z,48.55
2022-08-21T09:13:06.079Z,49.77
2022-08-21T09:14:06.057Z,49.64
2022-08-21T09:15:06.051Z,49.74
2022-08-21T09:16:06.035Z,49.37
2022-08-21T09:17:06.042Z,49.07
2022-08-21T09:18:07.814Z,49.17
2022-08-21T09:19:06.009Z,49.07
2022-08-21T09:20:06.012Z,48.88
2022-08-21T09:21:05.976Z,49.19
2022-08-21T09:22:05.968Z,49.69
2022-08-21T09:23:05.970Z,49.89
2022-08-21T09:24:05.945Z,49.10
2022-08-21T09:25:05.954Z,50.29
2022-08-21T09:26:05.925Z,50.38
2022-08-21T09:27:07.158Z,49.59
2022-08-21T09:28:05.897Z,50.09
2022-08-21T09:29:05.889Z,49.52
2022-08-21T09:30:05.926Z,50.11
2022-08-21T09:31:17.400Z,48.05
2022-08-21T09:32:05.856Z,50.11
2022-08-21T09:33:05.851Z,50.21
2022-08-21T09:34:05.836Z,49.81
2022-08-21T09:35:05.842Z,49.91
2022-08-21T09:36:05.816Z,49.32
2022-08-21T09:37:05.800Z,50.43
2022-08-21T09:38:05.791Z,49.86
2022-08-21T09:39:05.777Z,50.36
2022-08-21T09:40:05.839Z,49.99
2022-08-21T09:41:05.755Z,50.78
2022-08-21T09:42:05.768Z,50.18
2022-08-21T09:43:05.732Z,50.09
2022-08-21T09:44:05.720Z,50.09
2022-08-21T09:45:05.732Z,49.59
2022-08-21T09:46:05.723Z,49.27
2022-08-21T09:47:05.712Z,49.86
2022-08-21T09:48:05.675Z,49.49
2022-08-21T09:49:06.000Z,49.27
2022-08-21T09:50:05.697Z,48.97
2022-08-21T09:51:05.652Z,48.75
2022-08-21T09:52:05.640Z,47.83
2022-08-21T09:53:05.620Z,47.52
2022-08-21T09:54:05.616Z,47.19
2022-08-21T09:55:05.842Z,47.07
2022-08-21T09:56:05.634Z,46.88
2022-08-21T09:57:05.578Z,47.66
2022-08-21T09:58:05.575Z,46.95
2022-08-21T09:59:07.446Z,47.72
2022-08-21T10:00:05.546Z,46.70
2022-08-21T10:01:05.575Z,45.60
2022-08-21T10:02:05.526Z,46.48
2022-08-21T10:03:05.511Z,46.26
2022-08-21T10:04:05.521Z,46.56
2022-08-21T10:05:05.491Z,45.65
2022-08-21T10:06:05.491Z,46.34
2022-08-21T10:07:05.468Z,45.04
2022-08-21T10:08:05.459Z,43.54
2022-08-21T10:09:05.476Z,43.91
2022-08-21T10:10:05.496Z,45.19
2022-08-21T10:11:05.422Z,44.90
2022-08-21T10:12:05.412Z,44.98
2022-08-21T10:13:06.401Z,44.19
2022-08-21T10:14:05.491Z,45.02
2022-08-21T10:15:08.616Z,44.72
2022-08-21T10:16:05.389Z,44.70
2022-08-21T10:17:05.358Z,44.92
2022-08-21T10:18:05.348Z,45.21
2022-08-21T10:19:05.339Z,44.23
2022-08-21T10:20:05.349Z,44.23
2022-08-21T10:21:08.144Z,44.23
2022-08-21T10:22:05.306Z,44.72
2022-08-21T10:23:05.299Z,45.24
2022-08-21T10:24:05.316Z,45.93
2022-08-21T10:25:05.281Z,45.02
2022-08-21T10:26:13.396Z,43.84
2022-08-21T10:27:06.252Z,44.53
2022-08-21T10:28:06.605Z,43.62
2022-08-21T10:29:05.266Z,43.62
2022-08-21T10:30:05.223Z,44.21
2022-08-21T10:31:05.382Z,43.20
2022-08-21T10:32:05.199Z,42.32
2022-08-21T10:33:06.213Z,42.99
2022-08-21T10:34:05.193Z,42.49
2022-08-21T10:35:05.174Z,43.57
2022-08-21T10:36:05.157Z,42.59
2022-08-21T10:37:10.822Z,43.87
2022-08-21T10:38:06.155Z,43.57
2022-08-21T10:39:26.080Z,42.59
2022-08-21T10:40:06.195Z,42.59
2022-08-21T10:41:05.106Z,42.59
2022-08-21T10:42:05.113Z,42.91
2022-08-21T10:43:05.083Z,42.52
2022-08-21T10:44:05.219Z,40.82
2022-08-21T10:45:05.085Z,40.69
2022-08-21T10:46:05.061Z,41.03
2022-08-21T10:47:05.043Z,40.64
2022-08-21T10:48:05.054Z,39.74
2022-08-21T10:49:05.022Z,39.74
2022-08-21T10:50:05.006Z,39.11
2022-08-21T10:51:05.071Z,38.51
2022-08-21T10:52:05.032Z,38.08
2022-08-21T10:53:04.993Z,37.59
2022-08-21T10:54:04.964Z,37.77
2022-08-21T10:55:04.955Z,37.39
2022-08-21T10:56:04.947Z,38.02
2022-08-21T10:57:04.961Z,39.11
2022-08-21T10:58:05.000Z,39.41
2022-08-21T10:59:04.911Z,39.14
2022-08-21T11:00:04.904Z,39.82
2022-08-21T11:01:04.984Z,39.15
2022-08-21T11:02:04.904Z,39.76
2022-08-21T11:03:05.160Z,39.95
2022-08-21T11:04:04.887Z,39.15
2022-08-21T11:05:04.869Z,39.35
2022-08-21T11:06:04.836Z,39.22
2022-08-21T11:07:05.464Z,38.41
2022-08-21T11:08:05.830Z,37.90
2022-08-21T11:09:04.806Z,37.37
2022-08-21T11:10:05.105Z,37.08
2022-08-21T11:11:04.907Z,37.47
2022-08-21T11:12:11.605Z,37.96
2022-08-21T11:13:05.783Z,36.75
2022-08-21T11:14:04.747Z,35.95
2022-08-21T11:15:04.749Z,36.52
2022-08-21T11:16:04.732Z,35.63
2022-08-21T11:17:04.744Z,33.85
2022-08-21T11:18:04.707Z,33.83
2022-08-21T11:19:04.704Z,35.22
2022-08-21T11:20:04.688Z,34.99
2022-08-21T11:21:04.698Z,37.69
2022-08-21T11:22:04.669Z,38.41
2022-08-21T11:23:05.028Z,37.56
2022-08-21T11:24:05.938Z,39.03
2022-08-21T11:25:04.671Z,38.64
2022-08-21T11:26:04.650Z,37.25
2022-08-21T11:27:04.620Z,37.12
2022-08-21T11:28:04.604Z,37.10
2022-08-21T11:29:04.595Z,35.71
2022-08-21T11:30:04.581Z,35.03
2022-08-21T11:31:04.592Z,36.71
2022-08-21T11:32:04.569Z,37.25
2022-08-21T11:33:04.553Z,37.27
2022-08-21T11:34:04.577Z,37.52
2022-08-21T11:35:04.540Z,36.37
2022-08-21T11:36:04.543Z,37.63
2022-08-21T11:37:04.814Z,36.11
2022-08-21T11:38:04.514Z,38.56
2022-08-21T11:39:04.495Z,37.37
2022-08-21T11:40:04.511Z,36.88
2022-08-21T11:41:04.807Z,36.29
2022-08-21T11:42:08.732Z,37.25
2022-08-21T11:43:04.497Z,35.19
2022-08-21T11:44:04.437Z,35.25
2022-08-21T11:45:04.435Z,36.12
2022-08-21T11:46:04.438Z,35.03
2022-08-21T11:47:04.429Z,35.69
2022-08-21T11:48:04.402Z,35.50
2022-08-21T11:49:04.395Z,34.97
2022-08-21T11:50:04.408Z,33.31
2022-08-21T11:51:04.373Z,33.01
2022-08-21T11:52:04.464Z,32.11
2022-08-21T11:53:04.382Z,35.09
2022-08-21T11:54:07.445Z,34.99
2022-08-21T11:55:04.332Z,33.04
2022-08-21T11:56:04.585Z,33.53
2022-08-21T11:57:04.312Z,31.18
2022-08-21T11:58:04.327Z,35.56
2022-08-21T11:59:04.293Z,33.67
2022-08-21T12:00:04.299Z,30.63
2022-08-21T12:01:04.278Z,32.96
2022-08-21T12:02:04.362Z,31.30
2022-08-21T12:03:04.319Z,32.89
2022-08-21T12:04:04.252Z,31.95
2022-08-21T12:05:08.495Z,30.59
2022-08-21T12:06:04.229Z,31.49
2022-08-21T12:07:04.231Z,33.45
2022-08-21T12:08:04.228Z,33.07
2022-08-21T12:09:04.328Z,32.68
2022-08-21T12:10:04.188Z,34.62
2022-08-21T12:11:04.183Z,34.03
2022-08-21T12:12:04.186Z,33.94
2022-08-21T12:13:04.309Z,33.94
2022-08-21T12:14:04.200Z,31.10
2022-08-21T12:15:04.148Z,31.57
2022-08-21T12:16:04.143Z,31.56
2022-08-21T12:17:04.121Z,32.13
2022-08-21T12:18:04.105Z,30.66
2022-08-21T12:19:04.116Z,31.04
2022-08-21T12:20:05.012Z,31.82
2022-08-21T12:21:04.082Z,30.34
2022-08-21T12:22:04.121Z,32.32
2022-08-21T12:23:04.058Z,32.73
2022-08-21T12:24:04.087Z,32.82
2022-08-21T12:25:04.057Z,32.71
2022-08-21T12:26:04.030Z,30.08
2022-08-21T12:27:04.023Z,30.65
2022-08-21T12:28:04.986Z,30.55
2022-08-21T12:29:04.026Z,32.70
2022-08-21T12:30:04.001Z,33.38
2022-08-21T12:31:03.984Z,29.70
2022-08-21T12:32:03.999Z,31.36
2022-08-21T12:33:04.009Z,30.71
2022-08-21T12:34:03.963Z,33.18
2022-08-21T12:35:03.952Z,33.26
2022-08-21T12:36:03.933Z,33.89
2022-08-21T12:37:03.953Z,35.27
2022-08-21T12:38:03.911Z,35.82
2022-08-21T12:39:03.908Z,35.57
2022-08-21T12:40:03.994Z,36.46
2022-08-21T12:41:03.891Z,35.36
2022-08-21T12:42:03.922Z,37.32
2022-08-21T12:43:04.512Z,37.03
2022-08-21T12:44:03.860Z,36.24
2022-08-21T12:45:03.853Z,34.66
2022-08-21T12:46:03.860Z,33.48
2022-08-21T12:47:03.834Z,33.97
2022-08-21T12:48:03.824Z,33.10
2022-08-21T12:49:03.841Z,36.83
2022-08-21T12:50:03.919Z,36.46
2022-08-21T12:51:03.798Z,37.13
2022-08-21T12:52:03.785Z,35.14